createdAt,value
2022-08-31T00:02:39.649Z,21.26
2022-08-31T00:08:16.790Z,21.30
2022-08-31T00:10:46.178Z,21.29
2022-08-31T00:13:12.780Z,21.29
2022-08-31T00:15:40.121Z,21.30
2022-08-31T00:18:06.903Z,21.24
2022-08-31T00:20:34.739Z,21.25
2022-08-31T00:23:07.126Z,21.31
2022-08-31T00:25:34.356Z,21.08
2022-08-31T00:28:01.591Z,21.16
2022-08-31T00:30:28.200Z,21.10
2022-08-31T00:32:54.723Z,21.10
2022-08-31T00:35:24.991Z,21.10
2022-08-31T00:37:51.388Z,21.15
2022-08-31T00:40:17.849Z,21.05
2022-08-31T00:42:44.296Z,21.03
2022-08-31T00:45:10.944Z,21.02
2022-08-31T00:47:37.463Z,20.97
2022-08-31T00:50:07.754Z,20.94
2022-08-31T00:52:37.628Z,20.98
2022-08-31T00:55:35.277Z,20.89
2022-08-31T00:58:06.288Z,20.78
2022-08-31T01:00:34.317Z,20.79
2022-08-31T01:03:03.112Z,20.72
2022-08-31T01:05:31.289Z,20.77
2022-08-31T01:08:00.834Z,20.72
2022-08-31T01:10:32.149Z,20.76
2022-08-31T01:12:59.936Z,20.87
2022-08-31T01:15:29.178Z,20.75
2022-08-31T01:17:59.003Z,20.74
2022-08-31T01:20:32.254Z,20.78
2022-08-31T01:23:22.227Z,20.76
2022-08-31T01:25:51.253Z,20.75
2022-08-31T01:28:17.746Z,20.77
2022-08-31T01:30:56.724Z,20.70
2022-08-31T01:33:23.087Z,20.71
2022-08-31T01:35:49.471Z,20.75
2022-08-31T01:38:15.878Z,20.62
2022-08-31T01:40:51.664Z,20.61
2022-08-31T01:43:18.257Z,20.46
2022-08-31T01:45:44.757Z,20.49
2022-08-31T01:48:11.766Z,20.47
2022-08-31T01:50:38.655Z,20.47
2022-08-31T01:53:05.481Z,20.54
2022-08-31T01:55:31.851Z,20.49
2022-08-31T01:57:59.634Z,20.50
2022-08-31T02:00:28.666Z,20.45
2022-08-31T02:02:56.984Z,20.36
2022-08-31T02:05:23.302Z,20.37
2022-08-31T02:07:49.725Z,20.40
2022-08-31T02:10:16.139Z,20.43
2022-08-31T02:12:42.618Z,20.51
2022-08-31T02:15:10.139Z,20.45
2022-08-31T02:17:36.496Z,20.47
2022-08-31T02:20:05.965Z,20.43
2022-08-31T02:22:32.408Z,20.48
2022-08-31T02:24:58.754Z,20.46
2022-08-31T02:27:25.612Z,20.38
2022-08-31T02:29:52.059Z,20.40
2022-08-31T02:32:19.622Z,20.40
2022-08-31T02:34:50.773Z,20.44
2022-08-31T02:37:18.325Z,20.42
2022-08-31T02:39:47.444Z,20.33
2022-08-31T02:42:15.676Z,20.41
2022-08-31T02:44:44.895Z,20.35
2022-08-31T02:47:11.221Z,20.39
2022-08-31T02:49:37.608Z,20.41
2022-08-31T02:52:04.224Z,20.34
2022-08-31T02:54:30.721Z,20.35
2022-08-31T02:56:57.102Z,20.35
2022-08-31T02:59:23.484Z,20.34
2022-08-31T03:01:53.083Z,20.33
2022-08-31T03:04:19.564Z,20.33
2022-08-31T03:06:47.802Z,20.43
2022-08-31T03:09:15.615Z,20.33
2022-08-31T03:11:42.526Z,20.23
2022-08-31T03:14:08.931Z,20.28
2022-08-31T03:16:35.400Z,20.29
2022-08-31T03:19:01.833Z,20.19
2022-08-31T03:21:28.252Z,20.20
2022-08-31T03:23:54.595Z,20.22
2022-08-31T03:26:20.971Z,20.21
2022-08-31T03:28:47.335Z,20.22
2022-08-31T03:31:13.750Z,20.19
2022-08-31T03:33:40.175Z,20.14
2022-08-31T03:36:07.132Z,20.11
2022-08-31T03:38:34.011Z,20.10
2022-08-31T03:41:01.488Z,20.02
2022-08-31T03:43:28.112Z,19.98
2022-08-31T03:45:54.868Z,20.15
2022-08-31T03:48:21.303Z,20.18
2022-08-31T03:50:47.651Z,20.10
2022-08-31T03:53:14.262Z,20.12
2022-08-31T03:55:42.863Z,20.06
2022-08-31T03:58:10.621Z,20.02
2022-08-31T04:00:37.498Z,20.04
2022-08-31T04:03:04.187Z,19.99
2022-08-31T04:05:34.041Z,19.94
2022-08-31T04:08:00.836Z,20.17
2022-08-31T04:10:27.246Z,20.31
2022-08-31T04:12:53.778Z,20.20
2022-08-31T04:15:22.125Z,20.08
2022-08-31T04:17:48.515Z,20.09
2022-08-31T04:20:16.516Z,20.06
2022-08-31T04:22:42.864Z,20.11
2022-08-31T04:25:10.266Z,20.17
2022-08-31T04:27:38.105Z,20.23
2022-08-31T04:30:07.626Z,20.22
2022-08-31T04:32:34.968Z,20.10
2022-08-31T04:35:01.912Z,20.10
2022-08-31T04:37:29.372Z,20.03
2022-08-31T04:39:59.133Z,20.04
2022-08-31T04:42:26.039Z,20.10
2022-08-31T04:44:52.384Z,20.18
2022-08-31T04:47:20.233Z,20.10
2022-08-31T04:49:47.561Z,20.06
2022-08-31T04:52:14.035Z,20.03
2022-08-31T04:54:40.403Z,20.03
2022-08-31T04:57:06.780Z,20.00
2022-08-31T04:59:33.131Z,19.95
2022-08-31T05:01:59.812Z,19.98
2022-08-31T05:04:28.868Z,20.07
2022-08-31T05:06:55.203Z,20.04
2022-08-31T05:09:23.530Z,20.00
2022-08-31T05:11:51.988Z,20.06
2022-08-31T05:14:18.896Z,19.96
2022-08-31T05:16:45.801Z,19.97
2022-08-31T05:19:12.806Z,19.95
2022-08-31T05:21:41.462Z,19.94
2022-08-31T05:24:16.975Z,19.94
2022-08-31T05:26:48.129Z,20.02
2022-08-31T05:29:16.068Z,19.88
2022-08-31T05:31:45.557Z,19.85
2022-08-31T05:34:15.121Z,19.82
2022-08-31T05:36:43.532Z,19.85
2022-08-31T05:39:12.290Z,19.96
2022-08-31T05:41:46.126Z,19.87
2022-08-31T05:44:13.067Z,19.81
2022-08-31T05:46:40.582Z,19.80
2022-08-31T05:49:07.935Z,19.69
2022-08-31T05:51:38.478Z,19.66
2022-08-31T05:54:05.411Z,19.62
2022-08-31T05:56:31.883Z,19.68
2022-08-31T05:58:58.638Z,19.79
2022-08-31T06:01:31.139Z,19.69
2022-08-31T06:03:58.825Z,19.76
2022-08-31T06:06:25.956Z,19.75
2022-08-31T06:08:53.363Z,19.75
2022-08-31T06:11:22.181Z,19.71
2022-08-31T06:13:52.488Z,19.75
2022-08-31T06:16:20.332Z,19.73
2022-08-31T06:18:50.920Z,19.74
2022-08-31T06:21:23.423Z,19.71
2022-08-31T06:23:52.011Z,19.67
2022-08-31T06:26:20.301Z,19.70
2022-08-31T06:28:51.450Z,19.71
2022-08-31T06:31:27.581Z,19.66
2022-08-31T06:33:54.999Z,19.60
2022-08-31T06:36:24.563Z,19.62
2022-08-31T06:38:52.574Z,19.50
2022-08-31T06:41:22.310Z,19.42
2022-08-31T06:43:49.163Z,19.37
2022-08-31T06:46:17.768Z,19.30
2022-08-31T06:48:44.918Z,19.12
2022-08-31T06:51:12.571Z,19.08
2022-08-31T06:53:42.255Z,19.11
2022-08-31T06:56:20.941Z,19.12
2022-08-31T06:58:53.908Z,19.04
2022-08-31T07:01:35.598Z,19.05
2022-08-31T07:04:09.056Z,18.97
2022-08-31T07:06:39.116Z,18.75
2022-08-31T07:09:08.455Z,18.66
2022-08-31T07:11:44.630Z,18.64
2022-08-31T07:14:14.504Z,18.60
2022-08-31T07:16:42.524Z,18.62
2022-08-31T07:19:10.220Z,18.71
2022-08-31T07:21:40.552Z,18.59
2022-08-31T07:24:07.948Z,18.38
2022-08-31T07:26:54.890Z,18.32
2022-08-31T07:29:22.974Z,18.17
2022-08-31T07:31:50.455Z,18.17
2022-08-31T07:34:26.573Z,18.04
2022-08-31T07:37:13.199Z,17.99
2022-08-31T07:40:02.249Z,17.91
2022-08-31T07:42:33.879Z,17.96
2022-08-31T07:45:02.187Z,17.93
2022-08-31T07:47:29.043Z,17.92
2022-08-31T07:49:58.377Z,17.94
2022-08-31T07:52:30.120Z,17.99
2022-08-31T07:55:06.252Z,18.02
2022-08-31T07:57:42.433Z,18.03
2022-08-31T08:00:14.609Z,18.07
2022-08-31T08:02:46.111Z,18.06
2022-08-31T08:05:26.701Z,18.06
2022-08-31T08:07:57.362Z,18.06
2022-08-31T08:10:24.143Z,18.09
2022-08-31T08:13:00.658Z,18.05
2022-08-31T08:15:33.801Z,18.01
2022-08-31T08:18:03.217Z,17.89
2022-08-31T08:20:34.205Z,18.02
2022-08-31T08:23:13.941Z,18.01
2022-08-31T08:25:41.347Z,18.07
2022-08-31T08:28:35.490Z,18.06
2022-08-31T08:31:01.063Z,18.05
2022-08-31T08:33:28.782Z,18.13
2022-08-31T08:35:57.830Z,18.06
2022-08-31T08:38:32.046Z,18.15
2022-08-31T08:41:00.955Z,18.09
2022-08-31T08:43:34.849Z,18.04
2022-08-31T08:46:20.091Z,18.03
2022-08-31T08:48:55.696Z,18.07
2022-08-31T08:51:26.175Z,18.05
2022-08-31T08:53:59.850Z,18.07
2022-08-31T08:56:33.291Z,18.07
2022-08-31T08:59:00.477Z,18.10
2022-08-31T09:01:28.744Z,18.01
2022-08-31T09:04:07.226Z,18.03
2022-08-31T09:06:54.541Z,17.98
2022-08-31T09:09:49.036Z,18.01
2022-08-31T09:12:36.009Z,18.10
2022-08-31T09:15:36.371Z,18.10
2022-08-31T09:18:34.677Z,18.09
2022-08-31T09:21:13.433Z,18.10
2022-08-31T09:23:44.143Z,18.05
2022-08-31T09:26:16.336Z,18.06
2022-08-31T09:28:48.167Z,18.02
2022-08-31T09:31:40.206Z,18.04
2022-08-31T09:34:24.738Z,17.94
2022-08-31T09:36:51.287Z,18.00
2022-08-31T09:39:29.274Z,18.12
2022-08-31T09:42:12.584Z,18.07
2022-08-31T09:44:43.116Z,18.17
2022-08-31T09:47:56.049Z,18.21
2022-08-31T09:50:47.706Z,18.15
2022-08-31T09:53:44.405Z,18.10
2022-08-31T09:56:23.103Z,18.09
2022-08-31T09:58:52.332Z,18.02
2022-08-31T10:01:33.961Z,18.04
2022-08-31T10:04:36.534Z,18.20
2022-08-31T10:07:28.735Z,18.16
2022-08-31T10:10:01.980Z,18.28
2022-08-31T10:13:04.072Z,18.32
2022-08-31T10:15:39.356Z,18.26
2022-08-31T10:18:19.147Z,18.24
2022-08-31T10:21:07.826Z,18.21
2022-08-31T10:23:54.121Z,18.17
2022-08-31T10:26:29.037Z,18.08
2022-08-31T10:28:59.492Z,18.02
2022-08-31T10:31:38.316Z,18.17
2022-08-31T10:34:31.732Z,18.13
2022-08-31T10:37:24.800Z,18.20
2022-08-31T10:39:58.549Z,18.15
2022-08-31T10:42:30.049Z,18.20
2022-08-31T10:45:04.901Z,18.30
2022-08-31T10:47:41.275Z,18.26
2022-08-31T10:50:10.769Z,18.27
2022-08-31T10:53:02.761Z,18.42
2022-08-31T10:55:37.112Z,18.54
2022-08-31T10:58:06.555Z,18.61
2022-08-31T11:00:52.926Z,18.54
2022-08-31T11:03:51.911Z,18.62
2022-08-31T11:06:30.661Z,18.62
2022-08-31T11:09:05.818Z,18.71
2022-08-31T11:11:47.459Z,18.85
2022-08-31T11:14:33.180Z,18.92
2022-08-31T11:17:11.875Z,18.88
2022-08-31T11:20:15.109Z,18.96
2022-08-31T11:22:45.036Z,19.04
2022-08-31T11:25:24.876Z,19.22
2022-08-31T11:28:08.126Z,19.28
2022-08-31T11:30:42.235Z,19.32
2022-08-31T11:33:16.213Z,19.51
2022-08-31T11:35:57.172Z,19.57
2022-08-31T11:38:47.801Z,19.65
2022-08-31T11:41:36.411Z,19.80
2022-08-31T11:44:04.909Z,19.93
2022-08-31T11:46:34.792Z,20.02
2022-08-31T11:49:01.234Z,20.12
2022-08-31T11:51:42.568Z,20.19
2022-08-31T11:54:36.155Z,20.20
2022-08-31T11:57:03.230Z,20.29
2022-08-31T11:59:35.768Z,20.41
2022-08-31T12:02:20.689Z,20.51
2022-08-31T12:04:53.102Z,20.63
2022-08-31T12:07:35.693Z,20.63
2022-08-31T12:10:27.530Z,20.59
2022-08-31T12:13:18.546Z,20.80
2022-08-31T12:16:01.026Z,20.83
2022-08-31T12:18:44.811Z,20.79
2022-08-31T12:21:56.765Z,20.85
2022-08-31T12:24:31.903Z,21.05
2022-08-31T12:27:07.717Z,21.28
2022-08-31T12:29:39.495Z,21.47
2022-08-31T12:32:36.203Z,21.65
2022-08-31T12:35:15.994Z,21.85
2022-08-31T12:37:42.547Z,22.18
2022-08-31T12:40:16.682Z,22.26
2022-08-31T12:42:55.370Z,22.41
2022-08-31T12:45:49.737Z,22.36
2022-08-31T12:48:37.385Z,22.63
2022-08-31T12:51:45.233Z,22.75
2022-08-31T12:54:29.574Z,22.85
2022-08-31T12:57:28.183Z,22.83
2022-08-31T13:00:15.867Z,23.10
2022-08-31T13:02:45.852Z,23.41
2022-08-31T13:05:29.361Z,23.61
2022-08-31T13:07:56.987Z,23.78
2022-08-31T13:10:35.279Z,24.12
2022-08-31T13:13:10.108Z,24.27
2022-08-31T13:15:40.131Z,24.41
2022-08-31T13:18:22.570Z,24.37
2022-08-31T13:21:05.586Z,24.56
2022-08-31T13:23:38.407Z,24.70
2022-08-31T13:26:19.704Z,24.76
2022-08-31T13:29:07.612Z,24.51
2022-08-31T13:31:45.805Z,24.31
2022-08-31T13:34:12.258Z,24.25
2022-08-31T13:36:54.878Z,24.26
2022-08-31T13:39:35.015Z,24.23
2022-08-31T13:42:12.673Z,24.24
2022-08-31T13:44:44.059Z,24.12
2022-08-31T13:47:20.454Z,24.25
2022-08-31T13:49:53.056Z,24.46
2022-08-31T13:52:27.927Z,24.58
2022-08-31T13:55:03.090Z,24.74
2022-08-31T13:57:35.012Z,24.91
2022-08-31T14:00:38.932Z,25.07
2022-08-31T14:03:45.564Z,25.23
2022-08-31T14:06:23.708Z,25.15
2022-08-31T14:09:08.676Z,25.17
2022-08-31T14:11:35.482Z,25.20
2022-08-31T14:14:08.226Z,25.24
2022-08-31T14:16:43.748Z,25.02
2022-08-31T14:19:38.612Z,24.73
2022-08-31T14:22:32.994Z,24.48
2022-08-31T14:25:00.816Z,24.62
2022-08-31T14:27:28.743Z,24.62
2022-08-31T14:29:55.780Z,24.37
2022-08-31T14:32:22.658Z,24.30
2022-08-31T14:34:49.184Z,24.38
2022-08-31T14:37:22.297Z,24.52
2022-08-31T14:39:51.155Z,24.73
2022-08-31T14:42:19.074Z,24.88
2022-08-31T14:44:56.432Z,24.64
2022-08-31T14:47:25.077Z,24.45
2022-08-31T14:49:52.029Z,24.46
2022-08-31T14:52:18.933Z,24.34
2022-08-31T14:54:45.974Z,24.33
2022-08-31T14:57:15.799Z,24.34
2022-08-31T14:59:44.557Z,24.32
2022-08-31T15:02:13.568Z,24.29
2022-08-31T15:04:45.333Z,24.30
2022-08-31T15:07:13.367Z,24.31
2022-08-31T15:09:42.303Z,24.25
2022-08-31T15:12:11.770Z,24.26
2022-08-31T15:14:42.445Z,24.29
2022-08-31T15:17:19.844Z,24.31
2022-08-31T15:19:49.982Z,24.28
2022-08-31T15:22:17.366Z,24.23
2022-08-31T15:24:44.769Z,24.27
2022-08-31T15:27:14.976Z,24.39
2022-08-31T15:29:43.156Z,24.44
2022-08-31T15:32:10.334Z,24.49
2022-08-31T15:34:38.274Z,24.49
2022-08-31T15:37:06.987Z,24.66
2022-08-31T15:39:43.232Z,24.71
2022-08-31T15:42:11.407Z,24.97
2022-08-31T15:44:40.172Z,24.90
2022-08-31T15:47:27.339Z,24.88
2022-08-31T15:49:55.855Z,24.87
2022-08-31T15:52:27.600Z,24.75
2022-08-31T15:54:55.011Z,25.03
2022-08-31T15:57:23.276Z,24.96
2022-08-31T15:59:50.070Z,24.75
2022-08-31T16:02:20.843Z,24.82
2022-08-31T16:04:48.621Z,24.64
2022-08-31T16:07:15.070Z,24.62
2022-08-31T16:09:44.513Z,24.46
2022-08-31T16:12:15.375Z,24.34
2022-08-31T16:14:44.884Z,24.48
2022-08-31T16:17:14.192Z,24.48
2022-08-31T16:19:41.010Z,24.57
2022-08-31T16:22:08.186Z,24.61
2022-08-31T16:24:37.280Z,24.56
2022-08-31T16:27:11.288Z,24.41
2022-08-31T16:29:38.829Z,24.33
2022-08-31T16:32:08.288Z,24.28
2022-08-31T16:34:39.029Z,24.20
2022-08-31T16:37:07.605Z,24.25
2022-08-31T16:39:36.024Z,24.09
2022-08-31T16:42:04.434Z,24.00
2022-08-31T16:44:36.680Z,23.91
2022-08-31T16:47:04.637Z,23.91
2022-08-31T16:49:33.906Z,23.94
2022-08-31T16:52:03.241Z,23.85
2022-08-31T16:54:29.945Z,23.80
2022-08-31T16:56:59.443Z,23.75
2022-08-31T16:59:27.704Z,23.71
2022-08-31T17:01:54.902Z,23.70
2022-08-31T17:04:48.079Z,23.70
2022-08-31T17:07:12.487Z,23.58
2022-08-31T17:09:39.451Z,23.60
2022-08-31T17:12:10.078Z,23.62
2022-08-31T17:14:46.931Z,23.54
2022-08-31T17:17:17.091Z,23.42
2022-08-31T17:19:44.740Z,23.36
2022-08-31T17:22:21.396Z,23.24
2022-08-31T17:24:50.328Z,23.14
2022-08-31T17:27:19.730Z,23.04
2022-08-31T17:29:49.748Z,22.98
2022-08-31T17:32:20.002Z,22.95
2022-08-31T17:34:50.804Z,23.03
2022-08-31T17:37:22.899Z,22.91
2022-08-31T17:39:52.777Z,22.76
2022-08-31T17:42:26.618Z,22.68
2022-08-31T17:44:54.280Z,22.61
2022-08-31T17:47:22.421Z,22.62
2022-08-31T17:49:50.604Z,22.54
2022-08-31T17:52:20.180Z,22.46
2022-08-31T17:54:46.681Z,22.45
2022-08-31T17:57:15.218Z,22.37
2022-08-31T17:59:46.124Z,22.30
2022-08-31T18:02:16.596Z,22.22
2022-08-31T18:04:43.774Z,22.15
2022-08-31T18:07:11.540Z,22.03
2022-08-31T18:09:40.581Z,21.91
2022-08-31T18:12:07.738Z,21.89
2022-08-31T18:14:36.072Z,21.82
2022-08-31T18:17:04.832Z,21.80
2022-08-31T18:19:33.015Z,21.74
2022-08-31T18:22:00.822Z,21.73
2022-08-31T18:24:27.560Z,21.61
2022-08-31T18:26:56.554Z,21.55
2022-08-31T18:29:25.030Z,21.50
2022-08-31T18:31:53.869Z,21.44
2022-08-31T18:34:23.896Z,21.42
2022-08-31T18:36:53.147Z,21.37
2022-08-31T18:39:47.854Z,21.37
2022-08-31T18:42:27.884Z,21.32
2022-08-31T18:45:12.762Z,21.25
2022-08-31T18:47:39.113Z,21.15
2022-08-31T18:50:05.861Z,21.11
2022-08-31T18:52:32.368Z,21.08
2022-08-31T18:54:58.889Z,20.96
2022-08-31T18:57:27.456Z,20.92
2022-08-31T18:59:54.549Z,20.83
2022-08-31T19:02:22.670Z,20.74
2022-08-31T19:04:50.824Z,20.75
2022-08-31T19:07:18.831Z,20.76
2022-08-31T19:09:45.909Z,20.73
2022-08-31T19:12:16.231Z,20.66
2022-08-31T19:14:45.111Z,20.60
2022-08-31T19:17:11.634Z,20.54
2022-08-31T19:19:38.081Z,20.55
2022-08-31T19:22:04.464Z,20.44
2022-08-31T19:24:30.928Z,20.44
2022-08-31T19:26:59.028Z,20.39
2022-08-31T19:29:29.764Z,20.40
2022-08-31T19:31:59.244Z,20.43
2022-08-31T19:34:29.447Z,20.39
2022-08-31T19:36:57.791Z,20.37
2022-08-31T19:39:28.347Z,20.29
2022-08-31T19:41:57.747Z,20.20
2022-08-31T19:44:27.792Z,20.27
2022-08-31T19:46:56.225Z,20.16
2022-08-31T19:49:23.133Z,20.12
2022-08-31T19:51:56.629Z,20.07
2022-08-31T19:54:25.934Z,20.07
2022-08-31T19:56:54.001Z,20.07
2022-08-31T19:59:21.595Z,19.97
2022-08-31T20:01:52.850Z,19.89
2022-08-31T20:04:21.336Z,19.72
2022-08-31T20:06:52.258Z,19.72
2022-08-31T20:09:22.336Z,19.70
2022-08-31T20:11:50.323Z,19.61
2022-08-31T20:14:18.547Z,19.61
2022-08-31T20:16:45.575Z,19.51
2022-08-31T20:19:15.848Z,19.47
2022-08-31T20:21:42.533Z,19.44
2022-08-31T20:24:12.280Z,19.38
2022-08-31T20:26:51.705Z,19.41
2022-08-31T20:29:20.130Z,19.32
2022-08-31T20:31:48.849Z,19.24
2022-08-31T20:34:18.906Z,19.31
2022-08-31T20:36:49.900Z,19.11
2022-08-31T20:39:18.595Z,19.07
2022-08-31T20:41:47.249Z,19.13
2022-08-31T20:44:23.132Z,19.12
2022-08-31T20:47:13.997Z,19.08
2022-08-31T20:49:46.709Z,19.09
2022-08-31T20:52:15.480Z,18.95
2022-08-31T20:54:45.298Z,18.97
2022-08-31T20:57:13.670Z,18.95
2022-08-31T20:59:41.408Z,18.84
2022-08-31T21:02:09.162Z,18.87
2022-08-31T21:04:42.095Z,18.90
2022-08-31T21:07:13.138Z,18.78
2022-08-31T21:09:41.547Z,18.84
2022-08-31T21:12:10.341Z,18.84
2022-08-31T21:14:40.857Z,18.77
2022-08-31T21:17:07.767Z,18.67
2022-08-31T21:19:39.275Z,18.63
2022-08-31T21:22:08.892Z,18.54
2022-08-31T21:24:38.182Z,18.60
2022-08-31T21:27:10.323Z,18.69
2022-08-31T21:29:37.110Z,18.66
2022-08-31T21:32:06.108Z,18.68
2022-08-31T21:34:32.612Z,18.60
2022-08-31T21:36:58.938Z,18.62
2022-08-31T21:39:25.361Z,18.59
2022-08-31T21:41:51.972Z,18.61
2022-08-31T21:44:20.788Z,18.64
2022-08-31T21:46:50.793Z,18.66
2022-08-31T21:49:18.563Z,18.59
2022-08-31T21:51:52.033Z,18.58
2022-08-31T21:54:21.932Z,18.54
2022-08-31T21:56:51.501Z,18.37
2022-08-31T21:59:19.764Z,18.32
2022-08-31T22:01:46.902Z,18.24
2022-08-31T22:04:16.111Z,18.19
2022-08-31T22:06:43.085Z,18.22
2022-08-31T22:09:15.812Z,18.18
2022-08-31T22:11:45.993Z,17.91
2022-08-31T22:14:18.262Z,18.01
2022-08-31T22:16:46.527Z,18.01
2022-08-31T22:19:15.542Z,17.88
2022-08-31T22:21:45.440Z,17.92
2022-08-31T22:24:27.855Z,17.84
2022-08-31T22:26:57.264Z,17.79
2022-08-31T22:29:27.427Z,17.74
2022-08-31T22:31:57.518Z,17.63
2022-08-31T22:34:24.716Z,17.64
2022-08-31T22:36:52.961Z,17.61
2022-08-31T22:39:26.211Z,17.62
2022-08-31T22:41:53.012Z,17.54
2022-08-31T22:44:22.607Z,17.55
2022-08-31T22:46:49.093Z,17.57
2022-08-31T22:49:15.579Z,17.54
2022-08-31T22:51:47.417Z,17.62
2022-08-31T22:54:16.044Z,17.61
2022-08-31T22:56:42.574Z,17.60
2022-08-31T22:59:13.215Z,17.63
2022-08-31T23:01:47.454Z,17.62
2022-08-31T23:04:18.795Z,17.63
2022-08-31T23:06:46.500Z,17.61
2022-08-31T23:09:13.065Z,17.53
2022-08-31T23:11:39.710Z,17.45
2022-08-31T23:14:08.929Z,17.37
2022-08-31T23:16:42.500Z,17.33
2022-08-31T23:19:18.191Z,17.32
2022-08-31T23:21:52.642Z,17.31
2022-08-31T23:24:28.641Z,17.34
2022-08-31T23:27:01.680Z,17.17
2022-08-31T23:29:35.727Z,17.09
2022-08-31T23:32:04.171Z,17.04
2022-08-31T23:34:30.787Z,17.01
2022-08-31T23:36:57.441Z,17.04
2022-08-31T23:39:24.544Z,16.94
2022-08-31T23:41:53.247Z,16.92
2022-08-31T23:44:20.399Z,16.92
2022-08-31T23:46:46.997Z,16.89
2022-08-31T23:49:17.613Z,16.89
2022-08-31T23:51:44.472Z,16.85
2022-08-31T23:54:12.370Z,16.85
2022-08-31T23:56:40.706Z,16.84
2022-08-31T23:59:10.544Z,16.83
